createdAt,value
2023-03-07T00:00:12.889Z,98242.22
2023-03-07T00:01:32.246Z,98241.50
2023-03-07T00:02:34.582Z,98235.53
2023-03-07T00:03:36.926Z,98239.91
2023-03-07T00:04:39.238Z,98244.75
2023-03-07T00:05:42.084Z,98239.75
2023-03-07T00:06:44.358Z,98247.88
2023-03-07T00:07:46.768Z,98247.56
2023-03-07T00:08:50.972Z,98249.06
2023-03-07T00:09:53.202Z,98255.63
2023-03-07T00:10:55.447Z,98246.44
2023-03-07T00:11:57.732Z,98250.72
2023-03-07T00:12:59.986Z,98245.66
2023-03-07T00:14:05.961Z,98251.00
2023-03-07T00:15:08.806Z,98243.25
2023-03-07T00:16:14.372Z,98242.31
2023-03-07T00:17:16.876Z,98242.28
2023-03-07T00:18:19.070Z,98243.88
2023-03-07T00:19:21.462Z,98247.88
2023-03-07T00:20:23.860Z,98239.78
2023-03-07T00:21:31.241Z,98249.44
2023-03-07T00:22:35.089Z,98247.06
2023-03-07T00:23:39.643Z,98240.28
2023-03-07T00:24:41.863Z,98240.47
2023-03-07T00:25:44.005Z,98244.25
2023-03-07T00:26:46.297Z,98247.19
2023-03-07T00:27:48.583Z,98242.28
2023-03-07T00:28:52.772Z,98249.00
2023-03-07T00:29:55.005Z,98237.00
2023-03-07T00:31:02.280Z,98235.09
2023-03-07T00:32:04.997Z,98246.59
2023-03-07T00:33:07.216Z,98239.59
2023-03-07T00:34:09.427Z,98236.38
2023-03-07T00:35:11.753Z,98241.19
2023-03-07T00:36:17.103Z,98231.69
2023-03-07T00:37:19.432Z,98232.44
2023-03-07T00:38:21.816Z,98234.31
2023-03-07T00:39:24.088Z,98231.44
2023-03-07T00:40:26.320Z,98231.28
2023-03-07T00:41:29.183Z,98236.63
2023-03-07T00:42:31.411Z,98235.06
2023-03-07T00:43:36.285Z,98236.06
2023-03-07T00:44:38.543Z,98234.53
2023-03-07T00:45:40.734Z,98232.16
2023-03-07T00:46:42.892Z,98223.22
2023-03-07T00:47:45.621Z,98230.41
2023-03-07T00:48:48.540Z,98223.78
2023-03-07T00:49:52.623Z,98227.03
2023-03-07T00:50:55.661Z,98227.06
2023-03-07T00:52:00.211Z,98226.28
2023-03-07T00:53:04.312Z,98221.06
2023-03-07T00:54:06.798Z,98220.06
2023-03-07T00:55:09.473Z,98221.72
2023-03-07T00:56:23.141Z,98218.25
2023-03-07T00:57:25.441Z,98225.47
2023-03-07T00:58:30.032Z,98211.72
2023-03-07T00:59:32.352Z,98215.31
2023-03-07T01:00:34.670Z,98214.63
2023-03-07T01:01:37.600Z,98219.84
2023-03-07T01:02:39.860Z,98217.34
2023-03-07T01:03:42.566Z,98206.28
2023-03-07T01:04:44.920Z,98215.97
2023-03-07T01:05:47.613Z,98208.69
2023-03-07T01:06:50.501Z,98208.09
2023-03-07T01:07:52.787Z,98205.50
2023-03-07T01:08:57.720Z,98206.63
2023-03-07T01:10:00.719Z,98207.59
2023-03-07T01:11:05.853Z,98209.06
2023-03-07T01:12:08.691Z,98204.88
2023-03-07T01:13:11.993Z,98205.66
2023-03-07T01:14:14.333Z,98195.28
2023-03-07T01:15:16.673Z,98192.97
2023-03-07T01:16:21.722Z,98187.81
2023-03-07T01:17:24.057Z,98198.56
2023-03-07T01:18:26.304Z,98198.19
2023-03-07T01:19:28.559Z,98195.34
2023-03-07T01:20:35.640Z,98184.88
2023-03-07T01:21:40.660Z,98194.19
2023-03-07T01:22:43.264Z,98190.16
2023-03-07T01:23:46.073Z,98193.03
2023-03-07T01:24:48.487Z,98194.47
2023-03-07T01:25:51.054Z,98199.13
2023-03-07T01:26:54.417Z,98188.13
2023-03-07T01:27:59.102Z,98181.63
2023-03-07T01:29:10.682Z,98187.94
2023-03-07T01:30:13.133Z,98187.94
2023-03-07T01:31:15.357Z,98190.72
2023-03-07T01:32:17.593Z,98179.16
2023-03-07T01:33:19.751Z,98191.31
2023-03-07T01:34:23.119Z,98188.78
2023-03-07T01:35:27.562Z,98194.06
2023-03-07T01:36:34.675Z,98193.81
2023-03-07T01:37:39.172Z,98188.34
2023-03-07T01:38:43.232Z,98194.34
2023-03-07T01:39:46.932Z,98188.03
2023-03-07T01:40:52.172Z,98195.13
2023-03-07T01:41:55.160Z,98190.91
2023-03-07T01:43:25.157Z,98192.22
2023-03-07T01:45:05.890Z,98186.75
2023-03-07T01:46:17.591Z,98193.41
2023-03-07T01:47:23.372Z,98200.09
2023-03-07T01:48:28.486Z,98191.59
2023-03-07T01:49:38.593Z,98197.03
2023-03-07T01:50:42.215Z,98191.75
2023-03-07T01:51:51.597Z,98192.34
2023-03-07T01:53:02.611Z,98189.31
2023-03-07T01:54:07.620Z,98187.00
2023-03-07T01:55:16.539Z,98190.53
2023-03-07T01:56:21.968Z,98178.72
2023-03-07T01:57:29.837Z,98167.66
2023-03-07T01:58:32.410Z,98183.91
2023-03-07T01:59:40.419Z,98184.94
2023-03-07T02:02:13.946Z,98168.06
2023-03-07T02:03:33.342Z,98175.53
2023-03-07T02:04:49.404Z,98179.22
2023-03-07T02:05:55.809Z,98172.41
2023-03-07T02:07:00.385Z,98175.22
2023-03-07T02:08:03.379Z,98174.38
2023-03-07T02:09:15.610Z,98165.41
2023-03-07T02:10:21.108Z,98176.41
2023-03-07T02:11:23.956Z,98172.41
2023-03-07T02:12:27.564Z,98168.84
2023-03-07T02:13:30.176Z,98168.75
2023-03-07T02:14:32.414Z,98167.22
2023-03-07T02:15:36.035Z,98159.66
2023-03-07T02:16:39.363Z,98163.38
2023-03-07T02:17:44.406Z,98160.88
2023-03-07T02:18:49.908Z,98157.38
2023-03-07T02:20:08.787Z,98164.56
2023-03-07T02:21:19.678Z,98162.13
2023-03-07T02:22:22.711Z,98162.13
2023-03-07T02:23:37.755Z,98163.13
2023-03-07T02:25:05.965Z,98161.63
2023-03-07T02:26:16.987Z,98164.31
2023-03-07T02:27:19.494Z,98168.38
2023-03-07T02:28:22.469Z,98169.00
2023-03-07T02:29:24.843Z,98165.09
2023-03-07T02:30:27.189Z,98162.16
2023-03-07T02:31:30.321Z,98162.25
2023-03-07T02:32:32.801Z,98166.63
2023-03-07T02:33:35.196Z,98158.22
2023-03-07T02:34:41.581Z,98159.13
2023-03-07T02:35:57.999Z,98165.09
2023-03-07T02:37:12.147Z,98166.19
2023-03-07T02:38:14.507Z,98166.06
2023-03-07T02:39:18.354Z,98170.03
2023-03-07T02:40:25.329Z,98164.94
2023-03-07T02:41:31.967Z,98166.88
2023-03-07T02:42:40.268Z,98163.66
2023-03-07T02:43:46.465Z,98155.78
2023-03-07T02:44:56.930Z,98169.84
2023-03-07T02:45:59.867Z,98161.25
2023-03-07T02:47:02.218Z,98164.50
2023-03-07T02:48:04.855Z,98166.38
2023-03-07T02:49:07.243Z,98153.28
2023-03-07T02:50:10.547Z,98167.19
2023-03-07T02:51:15.486Z,98163.75
2023-03-07T02:52:21.667Z,98156.59
2023-03-07T02:53:24.084Z,98160.69
2023-03-07T02:54:26.824Z,98157.19
2023-03-07T02:55:29.094Z,98156.41
2023-03-07T02:56:36.600Z,98153.91
2023-03-07T02:57:38.800Z,98146.19
2023-03-07T02:58:42.014Z,98158.03
2023-03-07T02:59:44.303Z,98153.84
2023-03-07T03:00:46.582Z,98158.03
2023-03-07T03:01:49.940Z,98158.06
2023-03-07T03:02:52.207Z,98153.84
2023-03-07T03:03:56.071Z,98154.50
2023-03-07T03:04:58.367Z,98151.22
2023-03-07T03:06:00.669Z,98137.41
2023-03-07T03:07:03.056Z,98141.06
2023-03-07T03:08:06.040Z,98151.38
2023-03-07T03:09:08.241Z,98146.97
2023-03-07T03:10:10.749Z,98138.56
2023-03-07T03:11:13.073Z,98136.72
2023-03-07T03:12:15.926Z,98137.78
2023-03-07T03:13:20.053Z,98140.34
2023-03-07T03:14:22.208Z,98143.16
2023-03-07T03:15:25.560Z,98139.50
2023-03-07T03:16:27.912Z,98135.53
2023-03-07T03:17:30.161Z,98131.97
2023-03-07T03:18:33.064Z,98138.91
2023-03-07T03:19:35.282Z,98138.91
2023-03-07T03:20:42.047Z,98132.72
2023-03-07T03:21:44.433Z,98127.53
2023-03-07T03:22:47.183Z,98130.16
2023-03-07T03:23:49.372Z,98119.69
2023-03-07T03:24:51.531Z,98118.31
2023-03-07T03:25:59.682Z,98115.59
2023-03-07T03:27:05.098Z,98123.25
2023-03-07T03:28:08.337Z,98118.91
2023-03-07T03:29:11.012Z,98125.19
2023-03-07T03:30:14.155Z,98121.69
2023-03-07T03:31:16.723Z,98119.69
2023-03-07T03:32:19.669Z,98115.63
2023-03-07T03:33:21.969Z,98112.78
2023-03-07T03:34:24.144Z,98112.75
2023-03-07T03:35:26.803Z,98107.63
2023-03-07T03:36:31.221Z,98114.28
2023-03-07T03:37:38.738Z,98115.13
2023-03-07T03:38:41.998Z,98115.09
2023-03-07T03:39:45.176Z,98114.03
2023-03-07T03:40:48.979Z,98121.88
2023-03-07T03:41:53.087Z,98115.91
2023-03-07T03:42:58.617Z,98123.97
2023-03-07T03:44:01.548Z,98114.59
2023-03-07T03:45:06.204Z,98110.28
2023-03-07T03:46:09.251Z,98106.75
2023-03-07T03:47:13.214Z,98110.78
2023-03-07T03:48:15.702Z,98108.19
2023-03-07T03:49:19.634Z,98109.13
2023-03-07T03:50:24.635Z,98113.31
2023-03-07T03:51:27.142Z,98113.50
2023-03-07T03:52:30.712Z,98106.50
2023-03-07T03:53:35.214Z,98114.16
2023-03-07T03:54:37.520Z,98102.94
2023-03-07T03:55:39.762Z,98101.94
2023-03-07T03:56:41.978Z,98099.31
2023-03-07T03:57:44.220Z,98098.16
2023-03-07T03:58:48.627Z,98098.13
2023-03-07T03:59:51.553Z,98102.69
2023-03-07T04:00:54.245Z,98103.38
2023-03-07T04:01:56.719Z,98103.78
2023-03-07T04:02:59.164Z,98096.91
2023-03-07T04:04:01.842Z,98093.63
2023-03-07T04:05:05.088Z,98095.53
2023-03-07T04:06:10.733Z,98093.97
2023-03-07T04:07:12.920Z,98099.75
2023-03-07T04:08:15.303Z,98095.41
2023-03-07T04:09:17.497Z,98084.19
2023-03-07T04:10:22.474Z,98090.25
2023-03-07T04:11:25.623Z,98092.03
2023-03-07T04:12:27.862Z,98086.81
2023-03-07T04:13:30.978Z,98091.91
2023-03-07T04:14:33.210Z,98092.84
2023-03-07T04:15:35.545Z,98084.81
2023-03-07T04:16:37.809Z,98095.44
2023-03-07T04:17:40.119Z,98078.50
2023-03-07T04:18:42.847Z,98084.00
2023-03-07T04:19:45.106Z,98079.81
2023-03-07T04:20:47.670Z,98093.59
2023-03-07T04:21:49.863Z,98078.00
2023-03-07T04:22:52.799Z,98078.94
2023-03-07T04:23:58.213Z,98081.28
2023-03-07T04:25:03.896Z,98075.38
2023-03-07T04:26:07.291Z,98075.22
2023-03-07T04:27:09.603Z,98067.91
2023-03-07T04:28:13.111Z,98062.06
2023-03-07T04:29:15.709Z,98068.19
2023-03-07T04:30:28.535Z,98075.28
2023-03-07T04:31:31.407Z,98069.19
2023-03-07T04:32:36.798Z,98069.16
2023-03-07T04:33:40.094Z,98066.69
2023-03-07T04:34:42.692Z,98071.69
2023-03-07T04:35:46.007Z,98063.56
2023-03-07T04:36:48.516Z,98069.00
2023-03-07T04:37:50.813Z,98065.44
2023-03-07T04:38:53.328Z,98056.84
2023-03-07T04:39:56.052Z,98061.97
2023-03-07T04:40:58.350Z,98063.63
2023-03-07T04:42:00.697Z,98062.03
2023-03-07T04:43:08.982Z,98063.00
2023-03-07T04:44:11.373Z,98068.19
2023-03-07T04:45:13.707Z,98067.22
2023-03-07T04:46:17.657Z,98063.84
2023-03-07T04:47:19.993Z,98065.47
2023-03-07T04:48:22.362Z,98050.19
2023-03-07T04:49:24.715Z,98060.41
2023-03-07T04:50:27.133Z,98057.78
2023-03-07T04:51:29.792Z,98056.78
2023-03-07T04:52:32.006Z,98056.69
2023-03-07T04:53:34.319Z,98057.66
2023-03-07T04:54:36.544Z,98052.50
2023-03-07T04:55:39.143Z,98048.41
2023-03-07T04:56:41.375Z,98055.97
2023-03-07T04:57:46.651Z,98053.63
2023-03-07T04:58:49.883Z,98047.06
2023-03-07T04:59:53.664Z,98046.59
2023-03-07T05:00:58.369Z,98044.72
2023-03-07T05:02:01.724Z,98050.75
2023-03-07T05:03:07.667Z,98049.97
2023-03-07T05:04:10.025Z,98048.31
2023-03-07T05:05:13.933Z,98044.78
2023-03-07T05:06:17.921Z,98049.00
2023-03-07T05:07:25.448Z,98043.97
2023-03-07T05:08:27.766Z,98048.28
2023-03-07T05:09:30.499Z,98038.91
2023-03-07T05:10:35.185Z,98032.16
2023-03-07T05:11:38.862Z,98035.59
2023-03-07T05:12:42.921Z,98035.41
2023-03-07T05:13:46.798Z,98039.88
2023-03-07T05:14:52.397Z,98040.78
2023-03-07T05:15:56.674Z,98029.59
2023-03-07T05:16:59.438Z,98035.84
2023-03-07T05:18:02.296Z,98028.91
2023-03-07T05:19:06.289Z,98034.97
2023-03-07T05:20:10.842Z,98030.56
2023-03-07T05:21:13.164Z,98031.81
2023-03-07T05:22:15.645Z,98031.78
2023-03-07T05:23:20.092Z,98024.78
2023-03-07T05:24:25.106Z,98025.81
2023-03-07T05:25:28.495Z,98028.97
2023-03-07T05:26:31.298Z,98031.41
2023-03-07T05:27:33.719Z,98031.41
2023-03-07T05:28:35.992Z,98025.03
2023-03-07T05:29:38.232Z,98025.97
2023-03-07T05:30:40.483Z,98029.34
2023-03-07T05:31:42.698Z,98027.63
2023-03-07T05:32:45.570Z,98021.69
2023-03-07T05:33:49.574Z,98011.66
2023-03-07T05:34:52.394Z,98028.47
2023-03-07T05:35:59.683Z,98030.38
2023-03-07T05:37:01.990Z,98017.38
2023-03-07T05:38:04.219Z,98024.28
2023-03-07T05:39:07.479Z,98029.47
2023-03-07T05:40:11.677Z,98029.34
2023-03-07T05:41:17.892Z,98031.03
2023-03-07T05:42:20.377Z,98024.84
2023-03-07T05:43:23.981Z,98023.97
2023-03-07T05:44:27.332Z,98020.50
2023-03-07T05:45:31.024Z,98018.59
2023-03-07T05:46:35.294Z,98020.00
2023-03-07T05:47:38.952Z,98021.78
2023-03-07T05:48:43.386Z,98020.34
2023-03-07T05:49:46.093Z,98018.75
2023-03-07T05:50:49.018Z,98022.78
2023-03-07T05:51:53.017Z,98011.44
2023-03-07T05:52:56.548Z,98020.19
2023-03-07T05:54:01.872Z,98015.78
2023-03-07T05:55:06.129Z,98016.06
2023-03-07T05:56:09.438Z,98014.09
2023-03-07T05:57:12.832Z,98010.41
2023-03-07T05:58:16.278Z,98007.75
2023-03-07T05:59:20.733Z,98009.13
2023-03-07T06:00:25.431Z,98014.19
2023-03-07T06:01:35.349Z,98012.84
2023-03-07T06:02:37.707Z,98009.59
2023-03-07T06:03:40.138Z,98009.22
2023-03-07T06:04:42.443Z,98006.13
2023-03-07T06:05:44.844Z,98001.22
2023-03-07T06:06:47.258Z,98000.56
2023-03-07T06:07:50.185Z,97998.69
2023-03-07T06:08:52.412Z,98005.66
2023-03-07T06:09:54.797Z,98011.25
2023-03-07T06:10:56.997Z,97999.69
2023-03-07T06:12:00.113Z,97999.53
2023-03-07T06:13:02.453Z,98003.34
2023-03-07T06:14:05.160Z,98000.47
2023-03-07T06:15:08.828Z,98002.19
2023-03-07T06:16:11.329Z,98003.19
2023-03-07T06:17:15.616Z,97996.09
2023-03-07T06:18:18.498Z,98001.59
2023-03-07T06:19:20.716Z,97997.34
2023-03-07T06:20:24.317Z,97999.44
2023-03-07T06:21:30.354Z,97997.69
2023-03-07T06:22:34.722Z,97999.38
2023-03-07T06:23:38.018Z,98000.59
2023-03-07T06:24:45.099Z,98000.66
2023-03-07T06:25:47.362Z,97998.88
2023-03-07T06:26:50.128Z,97999.66
2023-03-07T06:28:00.728Z,97997.59
2023-03-07T06:29:04.888Z,97993.72
2023-03-07T06:30:09.203Z,97996.78
2023-03-07T06:31:14.544Z,97995.72
2023-03-07T06:32:17.090Z,97993.88
2023-03-07T06:33:19.831Z,97993.88
2023-03-07T06:34:22.063Z,97992.38
2023-03-07T06:35:24.424Z,97996.94
2023-03-07T06:36:26.900Z,98001.19
2023-03-07T06:37:32.667Z,97993.75
2023-03-07T06:38:36.711Z,97996.56
2023-03-07T06:39:39.360Z,97996.13
2023-03-07T06:40:42.934Z,97986.88
2023-03-07T06:41:50.992Z,98001.22
2023-03-07T06:42:53.726Z,97996.34
2023-03-07T06:43:55.979Z,97996.28
2023-03-07T06:45:04.548Z,98004.25
2023-03-07T06:46:07.122Z,98001.81
2023-03-07T06:47:13.499Z,97988.78
2023-03-07T06:48:15.856Z,98001.53
2023-03-07T06:49:18.285Z,97996.13
2023-03-07T06:50:33.462Z,97998.88
2023-03-07T06:51:38.112Z,97988.28
2023-03-07T06:52:41.729Z,97995.19
2023-03-07T06:53:44.418Z,97998.25
2023-03-07T06:54:46.719Z,97995.94
2023-03-07T06:55:50.617Z,98001.13
2023-03-07T06:56:53.000Z,98002.06
2023-03-07T06:57:57.794Z,97998.25
2023-03-07T06:59:00.065Z,97999.66
2023-03-07T07:00:05.518Z,97997.84
2023-03-07T07:01:15.907Z,98000.59
2023-03-07T07:02:18.257Z,97997.84
2023-03-07T07:03:20.712Z,97997.34
2023-03-07T07:04:23.235Z,97997.88
2023-03-07T07:05:26.364Z,97997.88
2023-03-07T07:06:29.047Z,98006.66
2023-03-07T07:07:31.470Z,98001.81
2023-03-07T07:08:34.670Z,97998.28
2023-03-07T07:09:37.648Z,98002.06
2023-03-07T07:10:40.133Z,98001.97
2023-03-07T07:11:42.440Z,98004.56
2023-03-07T07:12:47.505Z,97998.84
2023-03-07T07:13:50.888Z,98009.59
2023-03-07T07:14:55.083Z,97996.72
2023-03-07T07:15:58.667Z,97990.97
2023-03-07T07:17:01.045Z,98003.94
2023-03-07T07:18:04.386Z,98000.28
2023-03-07T07:19:09.873Z,98001.41
2023-03-07T07:20:12.612Z,98000.28
2023-03-07T07:21:16.990Z,98002.63
2023-03-07T07:22:19.256Z,97991.47
2023-03-07T07:23:21.648Z,97993.34
2023-03-07T07:24:24.775Z,97990.78
2023-03-07T07:25:28.439Z,97998.19
2023-03-07T07:26:30.791Z,97995.69
2023-03-07T07:27:36.552Z,97994.66
2023-03-07T07:28:39.324Z,98001.66
2023-03-07T07:29:43.652Z,97994.72
2023-03-07T07:30:45.961Z,97994.19
2023-03-07T07:31:50.765Z,97990.69
2023-03-07T07:32:54.746Z,97996.03
2023-03-07T07:33:58.064Z,98002.25
2023-03-07T07:35:02.830Z,98003.84
2023-03-07T07:36:07.499Z,97996.53
2023-03-07T07:37:11.253Z,97996.97
2023-03-07T07:38:13.994Z,98005.06
2023-03-07T07:39:17.557Z,97992.25
2023-03-07T07:40:21.082Z,97998.59
2023-03-07T07:41:23.955Z,97997.56
2023-03-07T07:42:30.710Z,97995.78
2023-03-07T07:44:00.595Z,97998.00
2023-03-07T07:45:10.556Z,97998.13
2023-03-07T07:46:13.031Z,97995.94
2023-03-07T07:47:15.414Z,97999.44
2023-03-07T07:48:17.746Z,97998.13
2023-03-07T07:49:21.454Z,97994.31
2023-03-07T07:50:24.206Z,98007.47
2023-03-07T07:51:26.476Z,98000.94
2023-03-07T07:52:28.879Z,97993.66
2023-03-07T07:53:31.904Z,97996.22
2023-03-07T07:54:34.084Z,98000.91
2023-03-07T07:55:36.366Z,97999.41
2023-03-07T07:56:38.664Z,97987.16
2023-03-07T07:57:41.998Z,98003.75
2023-03-07T07:58:44.672Z,97990.59
2023-03-07T07:59:48.591Z,98005.81
2023-03-07T08:00:50.902Z,97994.94
2023-03-07T08:01:53.454Z,97995.75
2023-03-07T08:02:55.720Z,97990.34
2023-03-07T08:03:57.882Z,97986.47
2023-03-07T08:05:00.110Z,97986.88
2023-03-07T08:06:02.338Z,97988.44
2023-03-07T08:07:04.638Z,97998.94
2023-03-07T08:08:06.819Z,97988.34
2023-03-07T08:09:09.036Z,97980.31
2023-03-07T08:10:15.899Z,97988.28
2023-03-07T08:11:19.638Z,97987.53
2023-03-07T08:12:21.923Z,97993.47
2023-03-07T08:13:24.098Z,97990.81
2023-03-07T08:14:26.341Z,97988.16
2023-03-07T08:15:28.724Z,97992.25
2023-03-07T08:16:31.021Z,97989.66
2023-03-07T08:17:33.238Z,97990.34
2023-03-07T08:18:35.482Z,97988.72
2023-03-07T08:19:37.712Z,97983.59
2023-03-07T08:20:41.197Z,97986.66
2023-03-07T08:21:43.537Z,97991.72
2023-03-07T08:22:49.412Z,97983.53
2023-03-07T08:23:53.006Z,97984.84
2023-03-07T08:24:55.366Z,97984.25
2023-03-07T08:26:04.231Z,97981.78
2023-03-07T08:27:07.491Z,97988.84
2023-03-07T08:28:09.707Z,97980.59
2023-03-07T08:29:12.761Z,97979.63
2023-03-07T08:30:15.214Z,97982.16
2023-03-07T08:31:23.758Z,97978.13
2023-03-07T08:32:27.479Z,97973.03
2023-03-07T08:33:29.673Z,97984.53
2023-03-07T08:34:34.932Z,97976.16
2023-03-07T08:35:37.161Z,97968.06
2023-03-07T08:36:39.533Z,97985.31
2023-03-07T08:37:41.719Z,97978.25
2023-03-07T08:38:43.980Z,97980.72
2023-03-07T08:39:46.270Z,97980.88
2023-03-07T08:40:48.482Z,97978.00
2023-03-07T08:41:50.650Z,97975.47
2023-03-07T08:42:55.136Z,97976.00
2023-03-07T08:43:57.376Z,97975.47
2023-03-07T08:44:59.657Z,97979.72
2023-03-07T08:46:02.790Z,97975.84
2023-03-07T08:47:05.056Z,97975.72
2023-03-07T08:48:09.624Z,97972.94
2023-03-07T08:49:11.998Z,97980.94
2023-03-07T08:50:14.262Z,97968.19
2023-03-07T08:51:17.912Z,97974.63
2023-03-07T08:52:20.148Z,97975.72
2023-03-07T08:53:22.916Z,97965.53
2023-03-07T08:54:25.126Z,97971.63
2023-03-07T08:55:27.311Z,97966.28
2023-03-07T08:56:29.544Z,97969.06
2023-03-07T08:57:31.860Z,97967.22
2023-03-07T08:58:34.699Z,97965.31
2023-03-07T08:59:36.906Z,97960.22
2023-03-07T09:00:39.251Z,97961.63
2023-03-07T09:01:41.572Z,97958.16
2023-03-07T09:02:43.814Z,97960.97
2023-03-07T09:03:46.019Z,97957.84
2023-03-07T09:04:48.298Z,97954.31
2023-03-07T09:05:50.566Z,97959.78
2023-03-07T09:06:52.874Z,97957.84
2023-03-07T09:07:55.536Z,97957.38
2023-03-07T09:08:58.095Z,97964.56
2023-03-07T09:10:00.578Z,97943.66
2023-03-07T09:11:05.282Z,97956.72
2023-03-07T09:12:07.611Z,97952.50
2023-03-07T09:13:10.636Z,97956.38
2023-03-07T09:14:12.836Z,97959.88
2023-03-07T09:15:15.113Z,97957.09
2023-03-07T09:16:17.549Z,97961.09
2023-03-07T09:17:19.761Z,97956.53
2023-03-07T09:18:22.890Z,97961.41
2023-03-07T09:19:25.978Z,97966.56
2023-03-07T09:20:28.263Z,97965.59
2023-03-07T09:21:30.517Z,97959.47
2023-03-07T09:22:32.948Z,97958.50
2023-03-07T09:23:35.227Z,97948.88
2023-03-07T09:24:37.485Z,97957.19
2023-03-07T09:25:40.266Z,97951.53
2023-03-07T09:26:42.456Z,97952.50
2023-03-07T09:27:45.537Z,97960.63
2023-03-07T09:28:47.787Z,97963.56
2023-03-07T09:29:50.163Z,97964.22
2023-03-07T09:30:52.474Z,97957.03
2023-03-07T09:31:54.736Z,97957.66
2023-03-07T09:32:57.218Z,97959.97
2023-03-07T09:33:59.570Z,97956.91
2023-03-07T09:35:01.890Z,97952.88
2023-03-07T09:36:07.638Z,97957.91
2023-03-07T09:37:10.419Z,97957.66
2023-03-07T09:38:12.586Z,97947.16
2023-03-07T09:39:15.451Z,97963.06
2023-03-07T09:40:20.824Z,97961.53
2023-03-07T09:41:53.785Z,97949.56
2023-03-07T09:43:13.702Z,97953.78
2023-03-07T09:44:49.774Z,97953.09
2023-03-07T09:46:15.708Z,97955.34
2023-03-07T09:47:48.973Z,97942.69
2023-03-07T09:49:34.418Z,97950.09
2023-03-07T09:50:57.269Z,97939.50
2023-03-07T09:52:00.817Z,97949.91
2023-03-07T09:53:04.656Z,97948.13
2023-03-07T09:54:38.767Z,97946.56
2023-03-07T09:55:41.381Z,97942.09
2023-03-07T09:56:48.892Z,97946.31
2023-03-07T09:57:55.290Z,97942.34
2023-03-07T09:59:13.672Z,97938.47
2023-03-07T10:00:33.702Z,97941.09
2023-03-07T10:01:39.449Z,97932.19
2023-03-07T10:02:51.694Z,97931.38
2023-03-07T10:04:02.829Z,97938.03
2023-03-07T10:05:21.853Z,97928.13
2023-03-07T10:06:40.497Z,97924.41
2023-03-07T10:07:42.768Z,97936.63
2023-03-07T10:08:45.412Z,97928.69
2023-03-07T10:09:51.938Z,97919.34
2023-03-07T10:11:08.974Z,97928.78
2023-03-07T10:12:31.156Z,97922.13
2023-03-07T10:14:15.801Z,97909.97
2023-03-07T10:15:42.958Z,97915.22
2023-03-07T10:16:49.160Z,97922.09
2023-03-07T10:18:15.481Z,97917.78
2023-03-07T10:19:46.708Z,97921.16
2023-03-07T10:20:59.788Z,97912.50
2023-03-07T10:22:28.175Z,97901.72
2023-03-07T10:23:54.747Z,97908.59
2023-03-07T10:25:08.824Z,97905.09
2023-03-07T10:26:31.081Z,97912.47
2023-03-07T10:27:33.717Z,97915.06
2023-03-07T10:28:42.152Z,97909.88
2023-03-07T10:29:53.629Z,97910.38
2023-03-07T10:31:11.827Z,97902.16
2023-03-07T10:32:58.492Z,97902.69
2023-03-07T10:34:13.635Z,97898.28
2023-03-07T10:35:29.152Z,97894.13
2023-03-07T10:36:51.605Z,97895.47
2023-03-07T10:38:04.775Z,97885.94
2023-03-07T10:39:23.360Z,97879.25
2023-03-07T10:40:34.300Z,97886.38
2023-03-07T10:41:36.518Z,97884.59
2023-03-07T10:42:40.917Z,97870.06
2023-03-07T10:43:44.728Z,97886.66
2023-03-07T10:44:48.840Z,97879.84
2023-03-07T10:45:58.506Z,97881.94
2023-03-07T10:47:01.250Z,97868.59
2023-03-07T10:48:15.516Z,97869.66
2023-03-07T10:49:26.978Z,97871.41
2023-03-07T10:50:56.673Z,97869.69
2023-03-07T10:52:01.891Z,97878.59
2023-03-07T10:53:09.145Z,97870.25
2023-03-07T10:54:17.067Z,97875.66
2023-03-07T10:55:44.519Z,97882.91
2023-03-07T10:57:08.066Z,97869.34
2023-03-07T10:58:22.700Z,97864.78
2023-03-07T10:59:25.799Z,97876.06
2023-03-07T11:00:28.239Z,97871.53
2023-03-07T11:01:32.673Z,97868.69
2023-03-07T11:02:46.130Z,97858.31
2023-03-07T11:03:58.191Z,97866.84
2023-03-07T11:05:01.165Z,97867.66
2023-03-07T11:06:04.421Z,97867.00
2023-03-07T11:07:30.030Z,97868.47
2023-03-07T11:08:36.341Z,97865.69
2023-03-07T11:09:47.817Z,97872.22
2023-03-07T11:10:50.127Z,97874.38
2023-03-07T11:11:56.551Z,97870.34
2023-03-07T11:12:58.866Z,97855.09
2023-03-07T11:14:09.736Z,97863.31
2023-03-07T11:15:21.512Z,97863.28
2023-03-07T11:16:25.663Z,97858.72
2023-03-07T11:17:41.837Z,97876.91
2023-03-07T11:18:45.642Z,97855.72
2023-03-07T11:19:48.725Z,97858.38
2023-03-07T11:20:51.684Z,97856.78
2023-03-07T11:21:55.583Z,97853.50
2023-03-07T11:23:32.339Z,97856.81
2023-03-07T11:24:39.134Z,97860.19
2023-03-07T11:25:41.404Z,97856.34
2023-03-07T11:26:43.644Z,97841.69
2023-03-07T11:27:45.897Z,97857.78
2023-03-07T11:29:03.244Z,97860.41
2023-03-07T11:30:09.086Z,97845.47
2023-03-07T11:31:28.107Z,97853.03
2023-03-07T11:32:30.540Z,97850.34
2023-03-07T11:33:59.617Z,97853.91
2023-03-07T11:35:18.226Z,97841.22
2023-03-07T11:36:35.844Z,97848.81
2023-03-07T11:38:01.980Z,97855.81
2023-03-07T11:39:26.647Z,97850.94
2023-03-07T11:40:40.153Z,97840.66
2023-03-07T11:41:47.972Z,97841.75
2023-03-07T11:43:02.043Z,97839.66
2023-03-07T11:44:36.128Z,97841.91
2023-03-07T11:45:59.907Z,97835.84
2023-03-07T11:47:19.223Z,97838.00
2023-03-07T11:49:02.023Z,97838.84
2023-03-07T11:50:26.835Z,97832.00
2023-03-07T11:51:48.971Z,97833.16
2023-03-07T11:53:18.834Z,97815.53
2023-03-07T11:54:45.644Z,97826.03
2023-03-07T11:56:17.978Z,97829.16
2023-03-07T11:57:20.129Z,97822.97
2023-03-07T11:58:43.659Z,97823.34
2023-03-07T12:00:00.607Z,97816.25
2023-03-07T12:01:21.439Z,97825.59
2023-03-07T12:02:45.701Z,97828.50
2023-03-07T12:04:06.158Z,97836.41
2023-03-07T12:05:30.577Z,97822.75
2023-03-07T12:07:00.526Z,97825.66
2023-03-07T12:08:27.656Z,97819.44
2023-03-07T12:09:48.807Z,97815.38
2023-03-07T12:11:05.507Z,97801.13
2023-03-07T12:12:28.797Z,97809.16
2023-03-07T12:13:54.539Z,97809.59
2023-03-07T12:15:39.021Z,97814.72
2023-03-07T12:17:20.134Z,97809.38
2023-03-07T12:18:37.315Z,97807.06
2023-03-07T12:20:04.815Z,97804.69
2023-03-07T12:21:47.184Z,97792.25
2023-03-07T12:22:59.834Z,97807.47
2023-03-07T12:24:27.356Z,97811.19
2023-03-07T12:25:37.656Z,97811.69
2023-03-07T12:26:39.809Z,97806.03
2023-03-07T12:27:45.632Z,97798.97
2023-03-07T12:29:10.522Z,97799.91
2023-03-07T12:30:20.196Z,97791.63
2023-03-07T12:31:34.497Z,97802.50
2023-03-07T12:32:37.769Z,97799.06
2023-03-07T12:33:58.103Z,97781.50
2023-03-07T12:35:18.335Z,97791.81
2023-03-07T12:36:42.083Z,97783.19
2023-03-07T12:37:51.233Z,97785.13
2023-03-07T12:39:14.742Z,97787.66
2023-03-07T12:40:35.308Z,97778.72
2023-03-07T12:42:02.187Z,97779.56
2023-03-07T12:43:40.724Z,97788.03
2023-03-07T12:45:09.457Z,97787.97
2023-03-07T12:46:19.583Z,97773.09
2023-03-07T12:47:36.101Z,97764.09
2023-03-07T12:48:46.134Z,97779.75
2023-03-07T12:50:02.230Z,97760.44
2023-03-07T12:51:17.702Z,97774.03
2023-03-07T12:52:50.674Z,97766.19
2023-03-07T12:54:27.778Z,97760.63
2023-03-07T12:55:44.850Z,97760.28
2023-03-07T12:56:55.068Z,97762.06
2023-03-07T12:58:13.141Z,97753.38
2023-03-07T12:59:19.535Z,97760.94
2023-03-07T13:00:23.266Z,97750.56
2023-03-07T13:01:28.128Z,97747.81
2023-03-07T13:02:35.111Z,97758.66
2023-03-07T13:04:16.343Z,97753.59
2023-03-07T13:05:21.186Z,97761.19
2023-03-07T13:06:24.949Z,97745.25